createdAt,value
2023-02-26T00:01:21.328Z,95599.66
2023-02-26T00:03:52.704Z,95592.69
2023-02-26T00:06:22.128Z,95591.91
2023-02-26T00:08:48.891Z,95599.41
2023-02-26T00:11:16.526Z,95595.81
2023-02-26T00:13:45.709Z,95602.81
2023-02-26T00:16:33.553Z,95614.13
2023-02-26T00:19:03.165Z,95607.44
2023-02-26T00:21:30.939Z,95603.78
2023-02-26T00:23:58.401Z,95596.81
2023-02-26T00:26:27.455Z,95615.41
2023-02-26T00:28:54.819Z,95603.25
2023-02-26T00:31:24.724Z,95587.19
2023-02-26T00:33:53.830Z,95614.91
2023-02-26T00:36:44.595Z,95623.16
2023-02-26T00:39:48.886Z,95616.69
2023-02-26T00:42:16.413Z,95595.16
2023-02-26T00:44:43.624Z,95626.19
2023-02-26T00:47:29.831Z,95607.03
2023-02-26T00:50:13.496Z,95628.31
2023-02-26T00:53:09.127Z,95634.16
2023-02-26T00:55:35.826Z,95597.44
2023-02-26T00:58:02.509Z,95628.53
2023-02-26T01:00:29.644Z,95587.41
2023-02-26T01:02:57.124Z,95626.97
2023-02-26T01:05:24.354Z,95627.19
2023-02-26T01:08:12.816Z,95629.00
2023-02-26T01:10:40.632Z,95614.03
2023-02-26T01:13:07.725Z,95628.53
2023-02-26T01:15:35.471Z,95604.47
2023-02-26T01:18:16.192Z,95600.06
2023-02-26T01:20:51.020Z,95634.25
2023-02-26T01:23:32.061Z,95612.00
2023-02-26T01:26:03.827Z,95616.88
2023-02-26T01:28:31.499Z,95631.63
2023-02-26T01:31:05.192Z,95630.34
2023-02-26T01:33:44.428Z,95642.13
2023-02-26T01:36:24.876Z,95639.59
2023-02-26T01:39:02.348Z,95634.72
2023-02-26T01:41:36.391Z,95634.41
2023-02-26T01:44:27.420Z,95575.56
2023-02-26T01:47:26.598Z,95612.31
2023-02-26T01:49:53.449Z,95616.69
2023-02-26T01:52:49.281Z,95644.44
2023-02-26T01:55:20.014Z,95637.91
2023-02-26T01:57:48.326Z,95615.38
2023-02-26T02:00:16.212Z,95639.69
2023-02-26T02:02:43.067Z,95651.28
2023-02-26T02:05:31.684Z,95638.06
2023-02-26T02:07:59.649Z,95634.63
2023-02-26T02:10:26.911Z,95655.66
2023-02-26T02:13:11.046Z,95659.22
2023-02-26T02:15:56.045Z,95651.97
2023-02-26T02:18:42.252Z,95645.72
2023-02-26T02:21:46.295Z,95654.88
2023-02-26T02:24:25.204Z,95661.59
2023-02-26T02:27:13.309Z,95656.88
2023-02-26T02:29:58.519Z,95661.81
2023-02-26T02:32:29.840Z,95656.59
2023-02-26T02:35:13.304Z,95662.56
2023-02-26T02:37:52.135Z,95662.91
2023-02-26T02:40:29.778Z,95651.25
2023-02-26T02:43:13.348Z,95658.22
2023-02-26T02:45:51.769Z,95645.34
2023-02-26T02:48:29.451Z,95674.06
2023-02-26T02:51:01.495Z,95664.50
2023-02-26T02:53:37.176Z,95671.47
2023-02-26T02:56:10.733Z,95684.47
2023-02-26T02:58:42.605Z,95685.50
2023-02-26T03:01:13.992Z,95677.53
2023-02-26T03:04:02.117Z,95693.31
2023-02-26T03:06:30.869Z,95658.50
2023-02-26T03:08:59.994Z,95671.16
2023-02-26T03:11:27.064Z,95703.06
2023-02-26T03:13:54.790Z,95662.63
2023-02-26T03:16:56.951Z,95706.13
2023-02-26T03:19:29.575Z,95707.72
2023-02-26T03:21:58.728Z,95700.28
2023-02-26T03:25:24.962Z,95707.25
2023-02-26T03:28:27.531Z,95704.41
2023-02-26T03:31:07.820Z,95696.09
2023-02-26T03:33:46.639Z,95712.69
2023-02-26T03:36:40.638Z,95717.59
2023-02-26T03:39:25.444Z,95719.06
2023-02-26T03:42:01.258Z,95725.50
2023-02-26T03:44:39.422Z,95702.44
2023-02-26T03:47:09.774Z,95703.50
2023-02-26T03:49:42.575Z,95716.91
2023-02-26T03:52:09.943Z,95728.78
2023-02-26T03:55:33.202Z,95740.47
2023-02-26T03:58:12.915Z,95708.09
2023-02-26T04:00:59.347Z,95720.03
2023-02-26T04:03:38.013Z,95704.25
2023-02-26T04:06:05.861Z,95711.22
2023-02-26T04:08:32.780Z,95727.22
2023-02-26T04:11:06.732Z,95721.31
2023-02-26T04:13:33.518Z,95759.09
2023-02-26T04:16:01.300Z,95767.69
2023-02-26T04:18:28.613Z,95773.31
2023-02-26T04:20:55.974Z,95743.25
2023-02-26T04:23:22.693Z,95775.69
2023-02-26T04:25:49.350Z,95758.03
2023-02-26T04:28:16.734Z,95781.72
2023-02-26T04:30:43.491Z,95781.91
2023-02-26T04:33:13.536Z,95788.44
2023-02-26T04:35:40.289Z,95754.97
2023-02-26T04:38:06.916Z,95785.75
2023-02-26T04:40:33.976Z,95776.00
2023-02-26T04:43:00.658Z,95789.47
2023-02-26T04:45:31.218Z,95783.50
2023-02-26T04:47:57.907Z,95792.56
2023-02-26T04:50:24.579Z,95798.31
2023-02-26T04:52:53.027Z,95769.75
2023-02-26T04:55:19.803Z,95767.44
2023-02-26T04:57:46.854Z,95802.47
2023-02-26T05:00:15.071Z,95794.94
2023-02-26T05:02:41.778Z,95770.69
2023-02-26T05:05:08.840Z,95770.53
2023-02-26T05:07:35.477Z,95805.22
2023-02-26T05:10:02.144Z,95786.97
2023-02-26T05:12:28.966Z,95771.72
2023-02-26T05:14:55.569Z,95784.13
2023-02-26T05:17:23.230Z,95811.38
2023-02-26T05:19:49.908Z,95794.44
2023-02-26T05:22:17.264Z,95778.94
2023-02-26T05:24:43.937Z,95786.94
2023-02-26T05:27:10.761Z,95795.53
2023-02-26T05:29:44.886Z,95817.00
2023-02-26T05:32:14.068Z,95808.41
2023-02-26T05:34:40.771Z,95815.94
2023-02-26T05:37:07.370Z,95821.16
2023-02-26T05:39:34.020Z,95800.91
2023-02-26T05:42:00.619Z,95789.66
2023-02-26T05:44:27.243Z,95825.50
2023-02-26T05:46:55.039Z,95809.09
2023-02-26T05:49:21.810Z,95823.28
2023-02-26T05:51:48.572Z,95834.47
2023-02-26T05:54:15.357Z,95845.13
2023-02-26T05:56:41.972Z,95849.56
2023-02-26T05:59:08.575Z,95844.47
2023-02-26T06:01:37.232Z,95846.28
2023-02-26T06:04:06.982Z,95839.00
2023-02-26T06:06:34.425Z,95863.50
2023-02-26T06:09:02.384Z,95871.25
2023-02-26T06:11:32.243Z,95869.00
2023-02-26T06:14:00.182Z,95836.78
2023-02-26T06:16:27.416Z,95874.06
2023-02-26T06:18:54.264Z,95864.78
2023-02-26T06:21:20.882Z,95868.03
2023-02-26T06:23:47.508Z,95884.91
2023-02-26T06:26:14.097Z,95878.72
2023-02-26T06:28:40.797Z,95853.72
2023-02-26T06:31:07.394Z,95881.28
2023-02-26T06:33:33.969Z,95912.13
2023-02-26T06:36:00.751Z,95916.00
2023-02-26T06:38:28.176Z,95906.72
2023-02-26T06:40:54.823Z,95886.41
2023-02-26T06:43:21.568Z,95902.47
2023-02-26T06:45:48.393Z,95914.88
2023-02-26T06:48:17.754Z,95911.75
2023-02-26T06:50:44.444Z,95947.63
2023-02-26T06:53:11.027Z,95943.59
2023-02-26T06:55:43.676Z,95956.31
2023-02-26T06:58:10.276Z,95965.41
2023-02-26T07:00:38.055Z,95973.63
2023-02-26T07:03:05.247Z,95954.69
2023-02-26T07:05:31.870Z,95963.09
2023-02-26T07:07:58.543Z,95959.03
2023-02-26T07:10:25.686Z,95987.59
2023-02-26T07:12:52.360Z,95969.19
2023-02-26T07:15:19.052Z,96003.19
2023-02-26T07:17:45.761Z,95982.19
2023-02-26T07:20:13.965Z,95992.81
2023-02-26T07:22:40.597Z,95979.13
2023-02-26T07:25:07.771Z,96015.69
2023-02-26T07:27:34.554Z,96021.97
2023-02-26T07:30:01.583Z,95992.50
2023-02-26T07:32:28.295Z,96009.06
2023-02-26T07:34:55.342Z,96025.50
2023-02-26T07:37:21.926Z,96013.28
2023-02-26T07:39:48.547Z,96004.75
2023-02-26T07:42:15.127Z,96016.13
2023-02-26T07:44:42.366Z,96017.94
2023-02-26T07:47:10.063Z,96054.84
2023-02-26T07:49:37.057Z,96044.22
2023-02-26T07:52:03.861Z,96054.34
2023-02-26T07:54:30.461Z,96018.47
2023-02-26T07:56:57.101Z,96059.50
2023-02-26T07:59:23.769Z,96020.50
2023-02-26T08:01:52.004Z,96065.78
2023-02-26T08:04:18.672Z,96061.97
2023-02-26T08:06:46.132Z,96034.97
2023-02-26T08:09:12.761Z,96056.22
2023-02-26T08:11:40.568Z,96073.81
2023-02-26T08:14:07.711Z,96081.31
2023-02-26T08:16:34.324Z,96082.38
2023-02-26T08:19:00.968Z,96063.47
2023-02-26T08:21:27.627Z,96053.09
2023-02-26T08:23:54.243Z,96085.09
2023-02-26T08:26:21.054Z,96054.19
2023-02-26T08:28:48.524Z,96096.81
2023-02-26T08:31:15.966Z,96105.34
2023-02-26T08:33:43.066Z,96091.06
2023-02-26T08:36:09.989Z,96090.53
2023-02-26T08:38:36.708Z,96087.66
2023-02-26T08:41:03.944Z,96119.13
2023-02-26T08:43:30.766Z,96092.69
2023-02-26T08:45:57.846Z,96111.69
2023-02-26T08:48:24.510Z,96129.31
2023-02-26T08:50:51.484Z,96136.63
2023-02-26T08:53:18.105Z,96135.06
2023-02-26T08:55:48.531Z,96148.59
2023-02-26T08:58:15.116Z,96123.97
2023-02-26T09:00:41.705Z,96143.63
2023-02-26T09:03:08.578Z,96122.84
2023-02-26T09:05:35.218Z,96163.16
2023-02-26T09:08:01.900Z,96160.53
2023-02-26T09:10:29.051Z,96168.59
2023-02-26T09:12:55.824Z,96118.16
2023-02-26T09:15:22.563Z,96168.31
2023-02-26T09:17:49.211Z,96137.34
2023-02-26T09:20:16.241Z,96178.41
2023-02-26T09:22:42.854Z,96164.53
2023-02-26T09:25:10.484Z,96174.06
2023-02-26T09:27:37.342Z,96189.94
2023-02-26T09:30:05.271Z,96185.66
2023-02-26T09:32:32.079Z,96203.28
2023-02-26T09:34:58.795Z,96192.66
2023-02-26T09:37:25.397Z,96212.81
2023-02-26T09:39:54.590Z,96202.97
2023-02-26T09:42:57.253Z,96216.50
2023-02-26T09:45:44.788Z,96205.28
2023-02-26T09:48:15.723Z,96189.78
2023-02-26T09:50:57.735Z,96182.84
2023-02-26T09:53:35.069Z,96220.53
2023-02-26T09:56:11.093Z,96185.69
2023-02-26T09:58:40.150Z,96214.66
2023-02-26T10:01:11.548Z,96204.78
2023-02-26T10:03:57.024Z,96242.19
2023-02-26T10:06:28.395Z,96221.97
2023-02-26T10:09:22.441Z,96239.09
2023-02-26T10:12:08.288Z,96235.16
2023-02-26T10:14:42.428Z,96255.22
2023-02-26T10:17:20.321Z,96243.50
2023-02-26T10:19:54.048Z,96240.94
2023-02-26T10:22:29.745Z,96260.97
2023-02-26T10:25:03.323Z,96268.78
2023-02-26T10:27:46.938Z,96263.31
2023-02-26T10:30:30.440Z,96241.50
2023-02-26T10:33:13.111Z,96267.69
2023-02-26T10:35:49.765Z,96265.13
2023-02-26T10:38:20.470Z,96278.91
2023-02-26T10:41:15.809Z,96284.06
2023-02-26T10:43:47.058Z,96287.66
2023-02-26T10:46:45.079Z,96288.44
2023-02-26T10:49:21.996Z,96292.34
2023-02-26T10:51:49.369Z,96259.59
2023-02-26T10:54:24.818Z,96273.94
2023-02-26T10:56:51.393Z,96236.50
2023-02-26T10:59:18.150Z,96256.22
2023-02-26T11:01:47.300Z,96290.31
2023-02-26T11:04:19.720Z,96281.22
2023-02-26T11:06:59.538Z,96277.84
2023-02-26T11:09:31.435Z,96290.06
2023-02-26T11:12:16.926Z,96298.91
2023-02-26T11:14:47.093Z,96291.66
2023-02-26T11:17:22.432Z,96301.75
2023-02-26T11:20:02.312Z,96291.31
2023-02-26T11:22:33.303Z,96285.81
2023-02-26T11:25:00.605Z,96275.13
2023-02-26T11:27:38.335Z,96290.75
2023-02-26T11:30:19.477Z,96295.22
2023-02-26T11:32:50.972Z,96246.41
2023-02-26T11:35:20.313Z,96285.91
2023-02-26T11:37:52.493Z,96297.09
2023-02-26T11:40:29.417Z,96276.03
2023-02-26T11:42:59.414Z,96293.94
2023-02-26T11:45:26.494Z,96295.72
2023-02-26T11:48:06.428Z,96301.44
2023-02-26T11:50:43.439Z,96273.88
2023-02-26T11:53:25.387Z,96264.25
2023-02-26T11:55:53.598Z,96282.47
2023-02-26T11:58:25.079Z,96300.69
2023-02-26T12:00:53.808Z,96289.00
2023-02-26T12:03:23.664Z,96299.66
2023-02-26T12:05:53.248Z,96283.84
2023-02-26T12:08:30.030Z,96305.13
2023-02-26T12:11:33.853Z,96309.47
2023-02-26T12:14:25.882Z,96299.09
2023-02-26T12:17:12.793Z,96306.59
2023-02-26T12:20:20.256Z,96301.44
2023-02-26T12:23:25.958Z,96302.78
2023-02-26T12:26:18.245Z,96288.00
2023-02-26T12:28:47.611Z,96300.97
2023-02-26T12:31:40.184Z,96295.00
2023-02-26T12:34:24.442Z,96286.97
2023-02-26T12:37:11.249Z,96305.06
2023-02-26T12:39:50.520Z,96267.03
2023-02-26T12:42:23.083Z,96312.31
2023-02-26T12:45:06.263Z,96298.81
2023-02-26T12:47:50.807Z,96291.09
2023-02-26T12:50:51.539Z,96310.47
2023-02-26T12:53:40.603Z,96317.91
2023-02-26T12:56:30.309Z,96308.00
2023-02-26T12:59:15.605Z,96320.44
2023-02-26T13:02:11.491Z,96302.19
2023-02-26T13:04:56.741Z,96290.41
2023-02-26T13:07:32.518Z,96306.75
2023-02-26T13:10:16.817Z,96319.59
2023-02-26T13:13:12.416Z,96315.56
2023-02-26T13:15:48.243Z,96305.88
2023-02-26T13:18:27.160Z,96309.53
2023-02-26T13:21:08.219Z,96304.94
2023-02-26T13:23:48.888Z,96312.03
2023-02-26T13:26:17.535Z,96282.88
2023-02-26T13:28:56.267Z,96318.31
2023-02-26T13:31:55.341Z,96319.41
2023-02-26T13:34:34.110Z,96325.41
2023-02-26T13:37:02.037Z,96320.72
2023-02-26T13:39:34.324Z,96323.31
2023-02-26T13:42:21.193Z,96324.09
2023-02-26T13:45:22.128Z,96329.59
2023-02-26T13:48:07.102Z,96332.19
2023-02-26T13:51:07.303Z,96332.97
2023-02-26T13:53:42.839Z,96336.34
2023-02-26T13:56:31.255Z,96329.59
2023-02-26T13:59:13.405Z,96325.91
2023-02-26T14:02:01.698Z,96339.41
2023-02-26T14:04:49.304Z,96337.31
2023-02-26T14:07:17.238Z,96340.94
2023-02-26T14:10:15.173Z,96330.63
2023-02-26T14:12:45.325Z,96329.84
2023-02-26T14:15:11.882Z,96334.75
2023-02-26T14:17:48.469Z,96345.69
2023-02-26T14:20:18.161Z,96353.94
2023-02-26T14:22:52.172Z,96350.16
2023-02-26T14:25:33.041Z,96326.41
2023-02-26T14:28:19.981Z,96350.38
2023-02-26T14:31:12.323Z,96364.41
2023-02-26T14:33:44.669Z,96364.56
2023-02-26T14:36:32.244Z,96359.25
2023-02-26T14:39:04.427Z,96347.44
2023-02-26T14:41:40.489Z,96380.19
2023-02-26T14:44:07.032Z,96376.69
2023-02-26T14:46:35.727Z,96368.03
2023-02-26T14:49:02.602Z,96380.28
2023-02-26T14:51:29.482Z,96384.44
2023-02-26T14:54:18.030Z,96388.84
2023-02-26T14:56:54.212Z,96397.66
2023-02-26T14:59:41.722Z,96395.50
2023-02-26T15:02:24.622Z,96397.72
2023-02-26T15:05:13.096Z,96398.94
2023-02-26T15:07:58.559Z,96401.56
2023-02-26T15:10:42.107Z,96386.78
2023-02-26T15:13:12.792Z,96401.34
2023-02-26T15:15:49.539Z,96374.03
2023-02-26T15:18:54.782Z,96416.13
2023-02-26T15:21:33.436Z,96436.13
2023-02-26T15:24:00.960Z,96430.66
2023-02-26T15:26:31.070Z,96429.06
2023-02-26T15:28:59.414Z,96436.59
2023-02-26T15:31:34.777Z,96446.03
2023-02-26T15:34:03.094Z,96446.38
2023-02-26T15:36:31.301Z,96438.38
2023-02-26T15:39:00.745Z,96445.28
2023-02-26T15:41:30.393Z,96443.03
2023-02-26T15:44:14.144Z,96456.13
2023-02-26T15:46:44.259Z,96449.53
2023-02-26T15:49:34.606Z,96426.91
2023-02-26T15:52:03.176Z,96445.00
2023-02-26T15:54:39.869Z,96445.41
2023-02-26T15:57:07.212Z,96414.09
2023-02-26T15:59:34.048Z,96471.69
2023-02-26T16:02:03.182Z,96467.06
2023-02-26T16:04:29.852Z,96467.13
2023-02-26T16:06:58.221Z,96477.91
2023-02-26T16:09:29.586Z,96482.91
2023-02-26T16:12:01.069Z,96459.13
2023-02-26T16:14:34.542Z,96450.28
2023-02-26T16:17:01.616Z,96445.25
2023-02-26T16:19:44.835Z,96484.81
2023-02-26T16:22:25.495Z,96440.66
2023-02-26T16:25:01.627Z,96489.13
2023-02-26T16:27:30.865Z,96463.31
2023-02-26T16:30:00.522Z,96468.97
2023-02-26T16:32:31.846Z,96496.03
2023-02-26T16:35:01.062Z,96516.78
2023-02-26T16:37:31.987Z,96509.78
2023-02-26T16:40:05.039Z,96518.00
2023-02-26T16:42:37.700Z,96523.09
2023-02-26T16:45:22.666Z,96531.09
2023-02-26T16:47:56.999Z,96539.59
2023-02-26T16:50:27.862Z,96543.69
2023-02-26T16:53:19.785Z,96490.56
2023-02-26T16:55:53.801Z,96556.53
2023-02-26T16:58:22.544Z,96558.63
2023-02-26T17:00:54.220Z,96560.25
2023-02-26T17:03:23.443Z,96550.44
2023-02-26T17:06:02.236Z,96562.91
2023-02-26T17:08:46.646Z,96568.31
2023-02-26T17:11:36.797Z,96564.22
2023-02-26T17:14:09.703Z,96533.00
2023-02-26T17:16:36.741Z,96554.41
2023-02-26T17:19:03.674Z,96557.16
2023-02-26T17:21:31.761Z,96571.13
2023-02-26T17:23:58.836Z,96572.28
2023-02-26T17:26:25.718Z,96544.22
2023-02-26T17:28:52.518Z,96552.28
2023-02-26T17:31:19.274Z,96561.81
2023-02-26T17:33:46.163Z,96559.91
2023-02-26T17:36:20.252Z,96589.00
2023-02-26T17:38:47.736Z,96593.47
2023-02-26T17:41:17.551Z,96564.25
2023-02-26T17:43:44.222Z,96593.88
2023-02-26T17:46:12.448Z,96577.19
2023-02-26T17:48:39.370Z,96589.81
2023-02-26T17:51:07.106Z,96580.78
2023-02-26T17:53:40.837Z,96583.22
2023-02-26T17:56:28.881Z,96607.22
2023-02-26T17:58:57.113Z,96607.81
2023-02-26T18:01:24.712Z,96612.75
2023-02-26T18:03:51.639Z,96583.22
2023-02-26T18:06:18.550Z,96623.09
2023-02-26T18:08:46.698Z,96578.16
2023-02-26T18:11:14.560Z,96618.03
2023-02-26T18:13:41.421Z,96628.59
2023-02-26T18:16:18.775Z,96606.31
2023-02-26T18:18:45.651Z,96632.91
2023-02-26T18:21:13.091Z,96613.66
2023-02-26T18:23:40.021Z,96640.19
2023-02-26T18:26:07.021Z,96627.56
2023-02-26T18:28:33.854Z,96646.84
2023-02-26T18:31:02.011Z,96599.13
2023-02-26T18:33:28.657Z,96635.59
2023-02-26T18:35:57.482Z,96642.84
2023-02-26T18:38:28.318Z,96655.22
2023-02-26T18:40:55.401Z,96644.91
2023-02-26T18:43:22.169Z,96646.56
2023-02-26T18:45:50.387Z,96655.97
2023-02-26T18:48:19.249Z,96654.84
2023-02-26T18:50:46.658Z,96614.03
2023-02-26T18:53:15.051Z,96661.41
2023-02-26T18:55:41.660Z,96645.38
2023-02-26T18:58:08.368Z,96651.88
2023-02-26T19:00:35.439Z,96660.41
2023-02-26T19:03:02.238Z,96647.13
2023-02-26T19:05:29.120Z,96670.22
2023-02-26T19:07:55.915Z,96652.72
2023-02-26T19:10:22.989Z,96646.34
2023-02-26T19:12:50.991Z,96669.41
2023-02-26T19:15:38.392Z,96650.13
2023-02-26T19:18:05.220Z,96657.06
2023-02-26T19:20:32.109Z,96656.66
2023-02-26T19:22:58.841Z,96685.16
2023-02-26T19:25:27.113Z,96686.06
2023-02-26T19:27:54.053Z,96695.25
2023-02-26T19:30:22.144Z,96702.38
2023-02-26T19:32:49.896Z,96671.94
2023-02-26T19:35:16.757Z,96704.25
2023-02-26T19:37:43.811Z,96692.69
2023-02-26T19:40:16.119Z,96705.38
2023-02-26T19:42:44.062Z,96715.16
2023-02-26T19:45:11.124Z,96708.41
2023-02-26T19:47:37.891Z,96703.03
2023-02-26T19:50:05.396Z,96704.84
2023-02-26T19:52:33.917Z,96710.13
2023-02-26T19:55:00.848Z,96723.69
2023-02-26T19:57:28.186Z,96701.69
2023-02-26T19:59:54.840Z,96696.31
2023-02-26T20:02:21.584Z,96723.38
2023-02-26T20:04:48.402Z,96708.81
2023-02-26T20:07:15.079Z,96718.44
2023-02-26T20:09:41.950Z,96711.47
2023-02-26T20:12:08.808Z,96715.31
2023-02-26T20:14:35.470Z,96720.16
2023-02-26T20:17:02.369Z,96722.38
2023-02-26T20:19:28.963Z,96721.59
2023-02-26T20:21:56.083Z,96753.38
2023-02-26T20:24:22.721Z,96727.53
2023-02-26T20:26:49.366Z,96750.91
2023-02-26T20:29:18.478Z,96757.19
2023-02-26T20:31:49.305Z,96747.41
2023-02-26T20:34:19.335Z,96769.22
2023-02-26T20:36:47.564Z,96736.28
2023-02-26T20:39:14.940Z,96744.72
2023-02-26T20:41:41.992Z,96753.50
2023-02-26T20:44:08.784Z,96773.34
2023-02-26T20:46:38.810Z,96773.94
2023-02-26T20:49:11.370Z,96769.22
2023-02-26T20:51:42.560Z,96768.31
2023-02-26T20:54:14.709Z,96777.84
2023-02-26T20:56:41.412Z,96753.78
2023-02-26T20:59:08.078Z,96777.06
2023-02-26T21:01:37.595Z,96759.09
2023-02-26T21:04:30.575Z,96751.88
2023-02-26T21:07:12.596Z,96780.41
2023-02-26T21:09:42.020Z,96778.19
2023-02-26T21:12:08.738Z,96781.16
2023-02-26T21:14:36.337Z,96765.78
2023-02-26T21:17:04.478Z,96756.22
2023-02-26T21:19:31.774Z,96741.69
2023-02-26T21:21:58.561Z,96785.19
2023-02-26T21:24:25.461Z,96765.84
2023-02-26T21:26:52.083Z,96742.16
2023-02-26T21:29:18.878Z,96789.53
2023-02-26T21:31:46.133Z,96786.06
2023-02-26T21:34:32.628Z,96748.28
2023-02-26T21:37:04.193Z,96769.53
2023-02-26T21:39:31.485Z,96792.03
2023-02-26T21:42:00.191Z,96769.41
2023-02-26T21:44:27.439Z,96784.00
2023-02-26T21:46:54.222Z,96795.25
2023-02-26T21:49:27.527Z,96793.75
2023-02-26T21:51:54.248Z,96776.31
2023-02-26T21:54:21.066Z,96775.03
2023-02-26T21:56:47.981Z,96775.31
2023-02-26T21:59:15.072Z,96767.69
2023-02-26T22:01:41.869Z,96766.88
2023-02-26T22:04:08.598Z,96797.66
2023-02-26T22:06:35.652Z,96797.22
2023-02-26T22:09:02.347Z,96794.78
2023-02-26T22:11:29.248Z,96764.53
2023-02-26T22:13:55.971Z,96765.25
2023-02-26T22:16:22.693Z,96774.22
2023-02-26T22:18:49.352Z,96802.88
2023-02-26T22:21:16.034Z,96788.44
2023-02-26T22:23:42.784Z,96772.66
2023-02-26T22:26:09.797Z,96796.81
2023-02-26T22:28:36.521Z,96771.41
2023-02-26T22:31:03.369Z,96802.53
2023-02-26T22:33:30.156Z,96805.34
2023-02-26T22:35:58.928Z,96790.09
2023-02-26T22:38:26.275Z,96774.56
2023-02-26T22:40:53.560Z,96788.53
2023-02-26T22:43:20.631Z,96780.06
2023-02-26T22:45:48.661Z,96802.47
2023-02-26T22:48:17.477Z,96773.28
2023-02-26T22:50:44.422Z,96806.31
2023-02-26T22:53:11.140Z,96801.03
2023-02-26T22:55:37.823Z,96780.63
2023-02-26T22:58:04.805Z,96791.78
2023-02-26T23:00:31.427Z,96790.50
2023-02-26T23:02:58.232Z,96809.66
2023-02-26T23:05:24.872Z,96818.41
2023-02-26T23:07:51.550Z,96822.00
2023-02-26T23:10:20.615Z,96820.63
2023-02-26T23:12:48.098Z,96823.56
2023-02-26T23:15:15.449Z,96822.28
2023-02-26T23:17:42.093Z,96791.94
2023-02-26T23:20:30.023Z,96795.22
2023-02-26T23:22:56.647Z,96808.22
2023-02-26T23:25:23.391Z,96780.31
2023-02-26T23:27:50.261Z,96790.44
2023-02-26T23:30:17.244Z,96810.47
2023-02-26T23:32:43.958Z,96788.63
2023-02-26T23:35:10.662Z,96808.84
2023-02-26T23:37:37.272Z,96814.69
2023-02-26T23:40:04.601Z,96777.25
2023-02-26T23:42:31.517Z,96823.19
2023-02-26T23:44:58.102Z,96780.28
2023-02-26T23:47:24.786Z,96808.69
2023-02-26T23:49:51.389Z,96749.28
2023-02-26T23:52:18.054Z,96828.75
2023-02-26T23:54:44.669Z,96828.75
2023-02-26T23:57:11.465Z,96829.75
2023-02-26T23:59:38.159Z,96829.41
